Time;durP1;ratioP1;P1;durP2;ratioP2;P2;SDS_P1;SDS_P2;PMS_P1;PMS_P2;Temp;Humidity;BMP_temperature;BMP_pressure;BME280_temperature;BME280_humidity;BME280_pressure;Samples;Min_cycle;Max_cycle;Signal;HPM_P1;HPM_P2
2022/07/20 00:02:21;;;;;;;9.60;5.80;;;20.30;64.20;;;;;;5034706;28;20185;-88
2022/07/20 00:04:51;;;;;;;6.95;6.25;;;20.30;64.30;;;;;;5035945;28;20165;-88
2022/07/20 00:07:17;;;;;;;7.35;5.63;;;20.30;64.40;;;;;;5036062;28;20235;-88
2022/07/20 00:12:26;;;;;;;9.60;5.63;;;20.00;64.70;;;;;;5035787;28;20227;-87
2022/07/20 00:14:52;;;;;;;7.63;6.45;;;20.10;64.70;;;;;;5034652;28;20212;-87
2022/07/20 00:17:18;;;;;;;7.10;6.28;;;20.00;64.90;;;;;;5035784;28;20553;-87
2022/07/20 00:19:43;;;;;;;7.10;5.82;;;20.00;65.00;;;;;;5035573;28;20231;-87
2022/07/20 00:22:09;;;;;;;7.63;6.30;;;20.00;65.20;;;;;;5035640;28;20204;-87
2022/07/20 00:24:35;;;;;;;8.90;5.78;;;20.00;65.40;;;;;;5034282;28;20172;-86
2022/07/20 00:27:01;;;;;;;8.32;6.10;;;19.90;65.50;;;;;;5075709;22;20223;-90
2022/07/20 00:29:27;;;;;;;7.53;6.13;;;19.90;65.60;;;;;;5037541;28;20677;-90
2022/07/20 00:31:52;;;;;;;8.93;6.00;;;19.90;65.80;;;;;;5037634;28;20179;-90
2022/07/20 00:34:18;;;;;;;7.75;5.95;;;19.80;65.80;;;;;;5037525;28;20187;-90
2022/07/20 00:36:43;;;;;;;12.35;6.28;;;19.70;66.00;;;;;;5055594;28;20196;-89
2022/07/20 00:39:09;;;;;;;11.30;6.32;;;19.70;66.20;;;;;;5037417;28;20180;-90
2022/07/20 00:41:35;;;;;;;9.23;6.38;;;19.80;66.30;;;;;;5037769;28;20309;-90
2022/07/20 00:44:10;;;;;;;8.70;6.75;;;19.80;66.30;;;;;;5037632;28;20172;-89
2022/07/20 00:46:38;;;;;;;9.95;6.05;;;19.80;66.20;;;;;;5055101;28;20184;-89
2022/07/20 00:49:06;;;;;;;11.63;6.10;;;19.80;66.10;;;;;;5037433;28;20233;-89
2022/07/20 00:51:32;;;;;;;8.95;6.03;;;19.80;66.00;;;;;;5037207;28;20182;-90
2022/07/20 00:53:59;;;;;;;9.52;5.90;;;19.70;66.00;;;;;;5037029;28;20694;-89
2022/07/20 00:56:24;;;;;;;8.00;5.75;;;19.70;66.00;;;;;;5037107;28;20192;-90
2022/07/20 00:58:50;;;;;;;10.35;5.85;;;19.80;66.00;;;;;;5037260;28;20518;-89
2022/07/20 01:01:16;;;;;;;9.05;6.53;;;19.80;65.80;;;;;;5055005;28;20171;-90
2022/07/20 01:03:42;;;;;;;13.45;6.32;;;19.80;65.60;;;;;;5038082;28;20208;-90
2022/07/20 01:06:08;;;;;;;13.60;6.00;;;19.90;65.50;;;;;;5036865;28;20199;-90
2022/07/20 01:08:34;;;;;;;8.73;6.10;;;20.00;65.40;;;;;;5054723;28;20229;-90
2022/07/20 01:11:01;;;;;;;10.88;5.90;;;19.90;65.30;;;;;;5036748;28;20172;-90
2022/07/20 01:13:27;;;;;;;7.75;6.55;;;19.90;65.40;;;;;;5037478;28;20199;-90
2022/07/20 01:15:52;;;;;;;7.63;6.15;;;19.90;65.30;;;;;;5054738;28;20271;-90
2022/07/20 01:18:18;;;;;;;10.00;6.25;;;19.90;65.40;;;;;;5036605;28;20183;-90
2022/07/20 01:20:47;;;;;;;12.77;6.40;;;19.90;65.40;;;;;;5036320;28;20172;-90
2022/07/20 01:23:13;;;;;;;8.52;6.40;;;19.90;65.10;;;;;;5036835;28;20176;-90
2022/07/20 01:25:39;;;;;;;12.93;5.70;;;19.90;65.00;;;;;;5036332;28;20262;-89
2022/07/20 01:28:06;;;;;;;14.38;6.78;;;19.90;64.80;;;;;;5036870;28;20180;-90
2022/07/20 01:30:32;;;;;;;7.85;6.35;;;20.00;64.60;;;;;;5036421;28;20176;-90
2022/07/20 01:32:57;;;;;;;9.05;5.95;;;20.00;64.60;;;;;;5036378;28;20203;-90
2022/07/20 01:35:23;;;;;;;11.93;6.10;;;19.90;64.70;;;;;;5036745;28;20180;-90
2022/07/20 01:37:48;;;;;;;12.30;6.43;;;19.90;64.80;;;;;;5036445;28;20779;-89
2022/07/20 01:40:14;;;;;;;11.85;6.35;;;19.80;65.10;;;;;;5036310;28;20168;-90
2022/07/20 01:42:39;;;;;;;7.22;5.50;;;19.80;65.30;;;;;;5036197;28;20282;-89
2022/07/20 01:45:06;;;;;;;8.75;6.63;;;19.80;65.40;;;;;;5036344;28;20176;-90
2022/07/20 01:47:31;;;;;;;9.57;6.18;;;19.70;65.60;;;;;;5036134;28;20233;-90
2022/07/20 01:49:57;;;;;;;7.82;6.20;;;19.70;65.80;;;;;;5036075;28;20192;-89
2022/07/20 01:52:22;;;;;;;6.85;5.93;;;19.60;65.90;;;;;;5035966;28;20232;-89
2022/07/20 01:54:48;;;;;;;7.53;6.10;;;19.60;66.20;;;;;;5036394;28;20665;-90
2022/07/20 01:57:13;;;;;;;6.47;5.57;;;19.50;66.30;;;;;;5035907;28;20686;-90
2022/07/20 01:59:39;;;;;;;8.77;5.55;;;19.40;66.30;;;;;;5053694;28;20709;-90
2022/07/20 02:02:04;;;;;;;10.35;6.00;;;19.40;66.50;;;;;;5035916;28;20298;-90
2022/07/20 02:04:30;;;;;;;11.75;6.18;;;19.30;66.50;;;;;;5035877;28;20188;-89
2022/07/20 02:06:56;;;;;;;8.35;6.28;;;19.30;66.50;;;;;;5035798;28;20227;-89
2022/07/20 02:09:21;;;;;;;9.55;6.32;;;19.20;66.80;;;;;;5036855;28;20176;-89
2022/07/20 02:11:47;;;;;;;10.18;6.53;;;19.20;66.80;;;;;;5035728;28;20650;-89
2022/07/20 02:14:12;;;;;;;9.43;5.97;;;19.20;66.80;;;;;;5036150;28;20216;-89
2022/07/20 02:16:38;;;;;;;8.63;6.40;;;19.20;66.80;;;;;;5035569;28;20566;-90
2022/07/20 02:19:03;;;;;;;10.15;5.85;;;19.10;66.70;;;;;;5035458;28;20184;-89
2022/07/20 02:21:29;;;;;;;7.43;6.40;;;19.10;66.70;;;;;;5035527;28;20171;-90
2022/07/20 02:23:55;;;;;;;10.52;6.60;;;19.10;66.70;;;;;;5035525;28;20175;-89
2022/07/20 02:26:21;;;;;;;8.80;6.22;;;19.00;66.70;;;;;;5035535;28;20218;-89
2022/07/20 02:28:47;;;;;;;10.30;6.07;;;19.00;66.70;;;;;;5035970;28;20180;-89
2022/07/20 02:31:13;;;;;;;9.60;6.30;;;19.00;66.80;;;;;;5036365;28;20180;-89
2022/07/20 02:33:39;;;;;;;9.27;6.25;;;18.90;66.90;;;;;;5052477;28;20188;-89
2022/07/20 02:36:05;;;;;;;8.30;6.47;;;18.90;67.00;;;;;;5035660;28;20583;-89
2022/07/20 02:38:30;;;;;;;7.15;6.20;;;18.90;67.00;;;;;;5035327;28;20704;-89
2022/07/20 02:40:56;;;;;;;7.30;5.90;;;18.90;67.00;;;;;;5035700;28;20176;-89
2022/07/20 02:43:22;;;;;;;12.68;6.53;;;18.80;67.00;;;;;;5035259;28;20218;-90
2022/07/20 02:45:47;;;;;;;7.45;6.50;;;18.80;67.10;;;;;;5035230;28;20241;-89
2022/07/20 02:48:13;;;;;;;10.05;6.28;;;18.70;67.20;;;;;;5053085;28;20207;-90
2022/07/20 02:50:41;;;;;;;9.90;5.93;;;18.70;67.40;;;;;;5035180;28;20229;-90
2022/07/20 02:53:09;;;;;;;12.05;6.00;;;18.70;67.20;;;;;;5035163;28;20199;-90
2022/07/20 02:55:35;;;;;;;9.23;5.93;;;18.70;67.10;;;;;;5035302;28;20195;-90
2022/07/20 02:58:00;;;;;;;8.85;5.60;;;18.70;67.10;;;;;;5035824;28;20172;-90
2022/07/20 03:00:27;;;;;;;7.60;6.10;;;18.80;67.00;;;;;;5035188;28;20669;-90
2022/07/20 03:02:52;;;;;;;7.28;5.68;;;18.80;67.10;;;;;;5036014;28;20180;-90
2022/07/20 03:05:18;;;;;;;6.30;5.63;;;18.80;67.10;;;;;;5035111;28;20179;-90
2022/07/20 03:07:43;;;;;;;11.98;5.88;;;18.80;66.80;;;;;;5035134;28;20176;-90
2022/07/20 03:10:10;;;;;;;10.15;6.22;;;18.80;66.60;;;;;;5035897;28;20229;-90
2022/07/20 03:12:35;;;;;;;7.47;5.65;;;18.90;66.50;;;;;;5035172;28;20199;-90
2022/07/20 03:15:02;;;;;;;7.03;5.22;;;18.90;66.20;;;;;;5035019;28;20176;-90
2022/07/20 03:17:27;;;;;;;10.75;6.15;;;18.90;66.20;;;;;;5034859;28;20195;-90
2022/07/20 03:19:53;;;;;;;7.80;5.88;;;19.00;66.00;;;;;;5035068;28;20176;-90
2022/07/20 03:22:19;;;;;;;7.95;5.95;;;19.00;66.00;;;;;;5034947;28;20176;-90
2022/07/20 03:24:44;;;;;;;6.63;5.93;;;19.00;66.10;;;;;;5052955;28;20568;-90
2022/07/20 03:27:10;;;;;;;11.93;5.72;;;19.10;66.00;;;;;;5034816;28;20207;-90
2022/07/20 03:29:36;;;;;;;7.65;5.65;;;19.10;66.00;;;;;;5052738;28;20198;-90
2022/07/20 03:32:02;;;;;;;6.47;5.18;;;19.10;66.00;;;;;;5034820;28;20183;-90
2022/07/20 03:34:28;;;;;;;8.23;6.10;;;19.10;65.80;;;;;;5035640;28;20203;-90
2022/07/20 03:36:53;;;;;;;8.38;5.65;;;19.20;65.50;;;;;;5034847;28;20273;-90
2022/07/20 03:39:19;;;;;;;18.10;6.15;;;19.30;65.00;;;;;;5035683;28;20208;-90
2022/07/20 03:41:45;;;;;;;7.72;5.60;;;19.30;64.70;;;;;;5034765;28;20212;-90
2022/07/20 03:44:10;;;;;;;7.22;5.68;;;19.40;64.30;;;;;;5035479;28;20172;-90
2022/07/20 03:46:36;;;;;;;10.52;6.00;;;19.50;63.80;;;;;;5038380;28;20202;-90
2022/07/20 03:49:01;;;;;;;12.75;5.18;;;19.50;63.90;;;;;;5038507;28;20176;-90
2022/07/20 03:51:27;;;;;;;14.18;5.70;;;19.60;63.60;;;;;;5038630;28;20187;-90
2022/07/20 03:53:53;;;;;;;6.78;5.28;;;19.70;63.30;;;;;;5038174;28;20253;-90
2022/07/20 03:56:19;;;;;;;14.40;5.75;;;19.70;62.90;;;;;;5038685;28;20650;-90
2022/07/20 03:58:44;;;;;;;8.90;5.22;;;19.90;62.40;;;;;;5038236;28;20173;-90
2022/07/20 04:01:10;;;;;;;10.50;5.40;;;20.00;62.30;;;;;;5038171;28;20221;-90
2022/07/20 04:03:36;;;;;;;8.35;5.40;;;20.10;61.90;;;;;;5038142;28;20172;-90
2022/07/20 04:06:02;;;;;;;7.15;5.10;;;20.10;61.60;;;;;;5037914;28;20203;-90
2022/07/20 04:08:27;;;;;;;8.90;5.50;;;20.20;61.70;;;;;;5037975;28;20725;-90
2022/07/20 04:10:53;;;;;;;9.07;5.47;;;20.20;61.80;;;;;;5038123;28;20265;-90
2022/07/20 04:13:19;;;;;;;10.60;5.25;;;20.20;61.70;;;;;;5038695;28;20580;-90
2022/07/20 04:15:44;;;;;;;8.52;5.80;;;20.30;61.90;;;;;;5055614;28;20275;-90
2022/07/20 04:18:10;;;;;;;8.68;5.90;;;20.30;62.00;;;;;;5037833;28;20194;-90
2022/07/20 04:20:35;;;;;;;7.68;5.47;;;20.20;62.30;;;;;;5038395;28;20168;-90
2022/07/20 04:23:01;;;;;;;8.27;5.70;;;20.30;62.40;;;;;;5038037;28;20176;-90
2022/07/20 04:25:26;;;;;;;13.93;6.05;;;20.30;62.50;;;;;;5037490;28;20294;-91
2022/07/20 04:27:52;;;;;;;8.55;5.93;;;20.30;62.60;;;;;;5038585;28;20176;-90
2022/07/20 04:30:18;;;;;;;7.65;5.97;;;20.30;62.90;;;;;;5038484;28;20207;-90
2022/07/20 04:32:44;;;;;;;6.85;5.30;;;20.30;63.10;;;;;;5037423;28;20231;-90
2022/07/20 04:35:10;;;;;;;9.57;5.78;;;20.30;63.20;;;;;;5037455;28;20665;-90
2022/07/20 04:37:37;;;;;;;6.28;5.18;;;20.40;63.30;;;;;;5037867;28;20246;-90
2022/07/20 04:40:04;;;;;;;9.18;4.78;;;20.40;63.50;;;;;;5037380;28;20268;-91
2022/07/20 04:42:29;;;;;;;8.98;5.07;;;20.50;63.50;;;;;;5037397;28;20267;-90
2022/07/20 04:44:55;;;;;;;8.85;5.50;;;20.50;63.40;;;;;;5037422;28;20199;-90
2022/07/20 04:47:20;;;;;;;9.27;4.80;;;20.50;63.70;;;;;;5037231;28;20196;-90
2022/07/20 04:49:46;;;;;;;6.50;5.00;;;20.60;63.60;;;;;;5055068;28;20599;-90
2022/07/20 04:52:11;;;;;;;7.50;5.80;;;20.70;63.00;;;;;;5037174;28;20172;-90
2022/07/20 04:54:37;;;;;;;8.02;5.00;;;20.70;62.90;;;;;;5037502;28;20176;-90
2022/07/20 04:57:03;;;;;;;7.85;5.32;;;20.80;63.00;;;;;;5036240;28;20195;-90
2022/07/20 04:59:28;;;;;;;6.85;5.18;;;20.80;63.20;;;;;;5043939;28;20200;-91
2022/07/20 05:01:54;;;;;;;6.50;5.35;;;20.80;63.40;;;;;;5046746;28;20176;-90
2022/07/20 05:04:20;;;;;;;9.65;5.40;;;20.90;63.50;;;;;;5036951;28;20172;-90
2022/07/20 05:06:45;;;;;;;5.88;4.80;;;20.90;63.80;;;;;;5036930;28;20188;-90
2022/07/20 05:09:11;;;;;;;8.35;5.22;;;21.00;63.40;;;;;;5037563;28;20271;-88
2022/07/20 05:11:38;;;;;;;9.07;5.75;;;21.10;63.40;;;;;;5036924;28;20172;-89
2022/07/20 05:14:03;;;;;;;7.70;5.00;;;21.20;62.90;;;;;;5036754;28;20211;-90
2022/07/20 05:16:29;;;;;;;9.65;5.10;;;21.20;63.00;;;;;;5036805;28;20188;-90
2022/07/20 05:18:55;;;;;;;10.32;5.10;;;21.30;62.60;;;;;;5054629;28;20286;-88
2022/07/20 05:21:20;;;;;;;10.70;5.20;;;21.40;62.30;;;;;;5036675;28;20285;-90
2022/07/20 05:23:46;;;;;;;13.20;5.72;;;21.50;62.00;;;;;;5036731;28;20176;-89
2022/07/20 05:26:11;;;;;;;15.27;5.45;;;21.70;62.00;;;;;;5036621;28;20329;-90
2022/07/20 05:28:42;;;;;;;9.50;5.03;;;21.80;62.00;;;;;;5036524;28;20176;-90
2022/07/20 05:31:09;;;;;;;6.78;5.20;;;21.90;61.60;;;;;;5054609;28;20168;-89
2022/07/20 05:33:35;;;;;;;6.22;4.93;;;22.00;61.00;;;;;;5036472;28;20196;-89
2022/07/20 05:36:02;;;;;;;13.90;5.03;;;22.10;60.40;;;;;;5036313;28;20192;-89
2022/07/20 05:38:29;;;;;;;11.52;5.03;;;22.20;60.30;;;;;;5036648;28;20179;-89
2022/07/20 05:40:55;;;;;;;7.97;5.03;;;22.30;59.90;;;;;;5054228;28;20260;-89
2022/07/20 05:43:20;;;;;;;10.38;5.32;;;22.30;59.90;;;;;;5036551;28;20203;-89
2022/07/20 05:45:46;;;;;;;6.50;4.80;;;22.30;60.20;;;;;;5054048;28;20230;-89
2022/07/20 05:48:12;;;;;;;11.50;5.13;;;22.40;60.20;;;;;;5036959;28;20176;-89
2022/07/20 05:50:38;;;;;;;12.93;4.85;;;22.50;60.60;;;;;;5036143;28;20218;-89
2022/07/20 05:53:04;;;;;;;9.68;5.05;;;22.60;60.60;;;;;;5036325;28;20619;-89
2022/07/20 05:55:30;;;;;;;10.35;5.00;;;22.80;59.50;;;;;;5036022;28;20673;-89
2022/07/20 05:57:56;;;;;;;13.05;5.13;;;23.00;59.50;;;;;;5035855;28;20182;-89
2022/07/20 06:00:21;;;;;;;9.05;4.80;;;23.20;59.00;;;;;;5036319;28;20264;-89
2022/07/20 06:02:47;;;;;;;15.88;4.80;;;23.30;59.00;;;;;;5036017;28;20275;-90
2022/07/20 06:05:12;;;;;;;11.65;5.43;;;23.40;58.80;;;;;;5035941;28;20187;-91
2022/07/20 06:07:38;;;;;;;8.73;4.88;;;23.60;58.50;;;;;;5035703;28;20180;-91
2022/07/20 06:10:04;;;;;;;22.48;4.65;;;23.60;57.80;;;;;;5035782;28;20203;-90
2022/07/20 06:12:30;;;;;;;14.02;5.20;;;23.70;57.40;;;;;;5036016;28;20249;-91
2022/07/20 06:14:55;;;;;;;9.73;4.80;;;23.80;57.20;;;;;;5036295;28;20258;-91
2022/07/20 06:17:21;;;;;;;9.88;4.18;;;24.00;57.20;;;;;;5036134;28;20196;-91
2022/07/20 06:19:46;;;;;;;5.57;4.60;;;24.20;55.50;;;;;;5035673;28;20180;-88
2022/07/20 06:22:12;;;;;;;8.95;4.85;;;24.30;54.90;;;;;;5053348;28;20168;-88
2022/07/20 06:24:37;;;;;;;6.95;5.00;;;24.40;55.20;;;;;;5036070;28;20179;-89
2022/07/20 06:27:03;;;;;;;9.10;4.70;;;24.60;54.30;;;;;;5035815;28;20215;-89
2022/07/20 06:29:28;;;;;;;10.70;5.15;;;24.70;54.00;;;;;;5089639;22;20254;-86
2022/07/20 06:31:54;;;;;;;11.27;4.90;;;24.80;53.30;;;;;;5033633;28;20172;-86
2022/07/20 06:34:19;;;;;;;8.13;4.30;;;25.00;53.50;;;;;;5033465;28;20698;-86
2022/07/20 06:36:46;;;;;;;13.93;4.80;;;25.10;51.90;;;;;;5032363;28;20658;-86
2022/07/20 06:39:12;;;;;;;11.18;4.38;;;25.20;52.20;;;;;;5033185;28;20276;-86
2022/07/20 06:41:37;;;;;;;9.05;4.20;;;25.30;52.70;;;;;;5033210;28;20203;-86
2022/07/20 06:44:03;;;;;;;11.15;4.68;;;25.50;53.00;;;;;;5032007;28;20187;-86
2022/07/20 06:46:28;;;;;;;6.55;4.43;;;25.60;52.70;;;;;;5032032;28;20184;-84
2022/07/20 06:48:54;;;;;;;6.40;4.47;;;25.70;52.40;;;;;;5031968;28;20196;-86
2022/07/20 06:51:20;;;;;;;10.07;4.40;;;25.80;52.30;;;;;;5031778;28;20574;-86
2022/07/20 06:53:45;;;;;;;16.05;5.18;;;26.00;51.70;;;;;;5031658;28;20204;-86
2022/07/20 06:56:11;;;;;;;11.75;4.32;;;26.00;52.00;;;;;;5031788;28;20169;-86
2022/07/20 06:58:36;;;;;;;17.35;4.28;;;26.10;52.20;;;;;;5033169;28;20217;-85
2022/07/20 07:01:02;;;;;;;9.35;4.47;;;26.20;51.50;;;;;;5031685;28;20200;-86
2022/07/20 07:03:27;;;;;;;13.10;4.53;;;26.40;51.50;;;;;;5033283;28;20173;-87
2022/07/20 07:05:53;;;;;;;13.38;4.80;;;26.50;51.60;;;;;;5032071;28;20244;-86
2022/07/20 07:08:18;;;;;;;13.40;3.75;;;26.60;51.20;;;;;;5033424;28;20207;-88
2022/07/20 07:10:44;;;;;;;15.65;4.60;;;26.70;50.60;;;;;;5031589;28;20185;-88
2022/07/20 07:13:09;;;;;;;9.05;4.20;;;26.80;48.50;;;;;;5031527;28;20192;-88
2022/07/20 07:15:35;;;;;;;10.38;4.90;;;26.80;49.70;;;;;;5033029;28;20173;-88
2022/07/20 07:18:00;;;;;;;7.55;4.00;;;26.90;48.50;;;;;;5031587;28;20599;-87
2022/07/20 07:20:26;;;;;;;14.48;4.43;;;26.90;49.90;;;;;;5034778;28;20717;-86
2022/07/20 07:22:52;;;;;;;11.38;4.60;;;26.90;50.40;;;;;;5036164;28;20177;-87
2022/07/20 07:25:17;;;;;;;10.95;4.20;;;27.00;47.00;;;;;;5037000;28;20589;-86
2022/07/20 07:27:43;;;;;;;5.90;3.95;;;27.00;49.30;;;;;;5036959;28;20650;-86
2022/07/20 07:30:09;;;;;;;9.65;4.20;;;27.10;48.30;;;;;;5035075;28;20212;-85
2022/07/20 07:32:34;;;;;;;8.15;4.50;;;27.20;47.30;;;;;;5035084;28;20637;-86
2022/07/20 07:35:00;;;;;;;13.75;4.30;;;27.30;47.10;;;;;;5036412;28;20200;-86
2022/07/20 07:37:26;;;;;;;9.25;3.97;;;27.30;48.30;;;;;;5036636;28;20517;-85
2022/07/20 07:39:51;;;;;;;10.73;4.35;;;27.50;47.50;;;;;;5036476;28;20263;-86
2022/07/20 07:42:17;;;;;;;10.55;4.30;;;27.50;47.10;;;;;;5035065;28;20539;-86
2022/07/20 07:44:42;;;;;;;12.27;3.97;;;27.60;44.60;;;;;;5036519;28;20179;-86
2022/07/20 07:47:08;;;;;;;10.45;3.97;;;27.70;46.30;;;;;;5036459;28;20172;-86
2022/07/20 07:49:33;;;;;;;10.52;3.90;;;27.70;47.20;;;;;;5034940;28;20196;-87
2022/07/20 07:51:59;;;;;;;8.07;4.32;;;27.70;46.40;;;;;;5034947;28;20200;-87
2022/07/20 07:54:24;;;;;;;6.82;3.53;;;27.80;45.70;;;;;;5036102;28;20560;-87
2022/07/20 07:56:50;;;;;;;9.10;4.57;;;28.00;45.30;;;;;;5034812;28;20181;-87
2022/07/20 07:59:16;;;;;;;10.15;4.15;;;28.10;45.90;;;;;;5034716;28;20189;-87
2022/07/20 08:01:41;;;;;;;9.77;3.97;;;28.30;43.50;;;;;;5034725;28;20669;-87
2022/07/20 08:04:07;;;;;;;7.82;3.75;;;28.40;44.20;;;;;;5034755;28;20272;-87
2022/07/20 08:06:33;;;;;;;9.02;4.10;;;28.60;41.10;;;;;;5036427;28;20202;-88
2022/07/20 08:08:58;;;;;;;9.50;4.35;;;28.60;42.10;;;;;;5034631;28;20624;-87
2022/07/20 08:11:24;;;;;;;14.93;4.20;;;28.80;43.00;;;;;;5034517;28;20177;-87
2022/07/20 08:13:50;;;;;;;12.13;3.70;;;28.80;44.00;;;;;;5034509;28;20216;-87
2022/07/20 08:16:15;;;;;;;8.23;4.10;;;28.90;43.60;;;;;;5034516;28;20177;-87
2022/07/20 08:18:41;;;;;;;8.40;4.22;;;29.00;43.40;;;;;;5035594;28;20196;-87
2022/07/20 08:21:07;;;;;;;10.85;4.75;;;29.10;43.10;;;;;;5034368;28;20173;-87
2022/07/20 08:23:32;;;;;;;10.25;4.15;;;29.30;43.90;;;;;;5034335;28;20173;-87
2022/07/20 08:25:58;;;;;;;7.43;4.00;;;29.30;42.80;;;;;;5034459;28;20773;-87
2022/07/20 08:28:23;;;;;;;10.05;4.13;;;29.40;42.60;;;;;;5034125;28;20187;-87
2022/07/20 08:30:51;;;;;;;7.80;4.10;;;29.50;43.70;;;;;;5035416;28;20255;-87
2022/07/20 08:33:17;;;;;;;10.05;4.57;;;29.60;43.60;;;;;;5034166;28;20712;-87
2022/07/20 08:35:43;;;;;;;11.13;4.38;;;29.80;42.20;;;;;;5034018;28;20267;-87
2022/07/20 08:38:10;;;;;;;7.70;3.92;;;29.90;42.80;;;;;;5034117;28;20194;-87
2022/07/20 08:40:36;;;;;;;10.23;4.50;;;29.90;41.60;;;;;;5035063;28;20185;-87
2022/07/20 08:43:02;;;;;;;7.72;4.15;;;30.20;42.10;;;;;;5034041;28;20199;-87
2022/07/20 08:45:28;;;;;;;11.23;4.35;;;30.30;41.30;;;;;;5033896;28;20180;-87
2022/07/20 08:48:01;;;;;;;8.73;4.18;;;30.40;42.30;;;;;;5035078;28;20176;-87
2022/07/20 08:50:31;;;;;;;7.00;3.95;;;30.50;42.30;;;;;;5035012;28;20192;-87
2022/07/20 08:52:57;;;;;;;13.38;4.50;;;30.60;41.50;;;;;;5039536;28;20192;-85
2022/07/20 08:55:24;;;;;;;12.05;4.70;;;30.70;40.30;;;;;;5039605;28;20173;-86
2022/07/20 08:57:50;;;;;;;11.30;4.35;;;30.80;42.00;;;;;;5039111;28;20177;-87
2022/07/20 09:00:16;;;;;;;15.02;4.20;;;31.00;42.30;;;;;;5041029;28;20261;-86
2022/07/20 09:02:50;;;;;;;7.75;3.90;;;31.00;41.60;;;;;;5040157;28;20173;-86
2022/07/20 09:05:16;;;;;;;10.73;4.22;;;31.20;43.40;;;;;;5040268;28;20254;-85
2022/07/20 09:07:47;;;;;;;5.57;3.80;;;31.20;42.70;;;;;;5038816;28;20181;-85
2022/07/20 09:10:19;;;;;;;10.90;3.60;;;31.30;41.00;;;;;;5039238;28;20600;-86
2022/07/20 09:12:54;;;;;;;8.60;4.18;;;31.30;40.80;;;;;;5040928;28;20203;-86
2022/07/20 09:15:36;;;;;;;8.02;4.22;;;31.40;40.20;;;;;;5038286;28;20172;-86
2022/07/20 09:18:15;;;;;;;11.02;4.45;;;31.40;40.90;;;;;;5039345;28;20191;-87
2022/07/20 09:21:01;;;;;;;9.55;4.43;;;31.50;41.20;;;;;;5038442;28;20192;-86
2022/07/20 09:23:54;;;;;;;6.30;4.03;;;31.70;40.80;;;;;;5039042;28;20169;-86
2022/07/20 09:26:20;;;;;;;7.70;4.10;;;31.90;39.40;;;;;;5038150;28;20157;-85
2022/07/20 09:28:49;;;;;;;6.30;3.60;;;31.90;40.50;;;;;;5037107;28;20627;-85
2022/07/20 09:31:18;;;;;;;9.00;3.80;;;32.10;39.40;;;;;;5036813;28;20180;-86
2022/07/20 09:34:04;;;;;;;11.77;4.05;;;32.10;39.60;;;;;;5037796;28;20204;-86
2022/07/20 09:36:38;;;;;;;5.60;3.70;;;32.20;38.10;;;;;;5038819;28;20176;-85
2022/07/20 09:39:08;;;;;;;8.15;3.90;;;32.20;38.50;;;;;;5035245;28;20203;-84
2022/07/20 09:41:36;;;;;;;12.93;4.05;;;32.30;38.40;;;;;;5035860;28;20181;-85
2022/07/20 09:44:04;;;;;;;5.75;3.22;;;32.70;37.00;;;;;;5033713;28;20176;-85
2022/07/20 09:46:32;;;;;;;6.68;3.33;;;32.70;37.40;;;;;;5034216;28;20188;-86
2022/07/20 09:49:04;;;;;;;9.65;3.40;;;32.80;36.60;;;;;;5034349;28;20192;-85
2022/07/20 09:51:31;;;;;;;11.68;3.85;;;32.70;37.80;;;;;;5033880;28;20534;-85
2022/07/20 09:54:04;;;;;;;8.00;3.75;;;33.00;39.20;;;;;;5034547;28;20193;-86
2022/07/20 09:56:31;;;;;;;7.40;3.63;;;33.00;35.40;;;;;;5032974;28;20712;-88
2022/07/20 09:58:59;;;;;;;6.07;3.20;;;33.10;36.40;;;;;;5036797;28;20192;-85
2022/07/20 10:01:27;;;;;;;8.93;3.22;;;33.20;34.40;;;;;;5038241;28;20222;-85
2022/07/20 10:03:55;;;;;;;7.63;3.40;;;33.50;35.50;;;;;;5039441;28;20643;-85
2022/07/20 10:06:22;;;;;;;6.97;3.38;;;33.50;36.00;;;;;;5040128;28;20185;-85
2022/07/20 10:08:50;;;;;;;4.93;3.30;;;33.50;37.00;;;;;;5038999;28;20193;-85
2022/07/20 10:11:17;;;;;;;10.77;3.05;;;33.70;36.40;;;;;;5039831;28;20187;-85
2022/07/20 10:13:48;;;;;;;6.35;3.33;;;33.80;35.80;;;;;;5038914;28;20656;-85
2022/07/20 10:16:25;;;;;;;12.43;3.15;;;33.80;36.00;;;;;;5037697;28;20174;-85
2022/07/20 10:18:51;;;;;;;8.73;3.25;;;34.00;34.60;;;;;;5038248;28;20556;-85
2022/07/20 10:21:36;;;;;;;9.43;3.35;;;34.10;34.40;;;;;;5038630;28;20223;-85
2022/07/20 10:24:22;;;;;;;10.18;3.00;;;34.20;34.70;;;;;;5039101;28;20204;-86
2022/07/20 10:26:50;;;;;;;7.65;3.35;;;34.30;37.10;;;;;;5038227;28;20176;-85
2022/07/20 10:29:37;;;;;;;11.02;3.67;;;34.30;35.10;;;;;;5037586;28;20698;-85
2022/07/20 10:32:09;;;;;;;10.65;3.35;;;34.40;35.30;;;;;;5036303;28;20172;-86
2022/07/20 10:34:36;;;;;;;7.93;3.45;;;34.50;33.90;;;;;;5034466;28;20295;-86
2022/07/20 10:37:24;;;;;;;13.38;3.80;;;34.70;35.80;;;;;;5036211;28;20175;-86
2022/07/20 10:40:14;;;;;;;14.30;3.60;;;34.80;34.10;;;;;;5034626;28;20195;-85
2022/07/20 10:42:45;;;;;;;7.00;3.25;;;35.00;35.40;;;;;;5034504;28;20259;-86
2022/07/20 10:45:17;;;;;;;9.32;3.45;;;34.80;32.00;;;;;;5032436;28;20680;-86
2022/07/20 10:47:45;;;;;;;8.75;3.38;;;34.90;34.50;;;;;;5032487;28;20173;-86
2022/07/20 10:50:31;;;;;;;10.02;3.50;;;35.10;35.90;;;;;;5032352;28;20223;-86
2022/07/20 10:53:10;;;;;;;11.65;3.40;;;35.40;34.70;;;;;;5033153;28;20196;-86
2022/07/20 10:55:36;;;;;;;8.38;3.10;;;35.70;31.90;;;;;;5035588;28;20518;-86
2022/07/20 10:58:09;;;;;;;13.73;3.65;;;36.10;33.10;;;;;;5036328;28;20183;-85
2022/07/20 11:00:44;;;;;;;10.68;3.45;;;35.80;33.60;;;;;;5035947;28;20191;-86
2022/07/20 11:03:29;;;;;;;9.45;3.35;;;35.80;33.50;;;;;;5036030;28;20172;-86
2022/07/20 11:06:07;;;;;;;7.47;3.20;;;35.80;34.10;;;;;;5035934;28;20224;-85
2022/07/20 11:08:35;;;;;;;6.65;4.30;;;35.60;36.30;;;;;;5035812;28;20176;-85
2022/07/20 11:11:01;;;;;;;8.50;4.30;;;35.70;34.20;;;;;;5037490;28;20187;-85
2022/07/20 11:13:27;;;;;;;10.88;3.38;;;35.80;34.70;;;;;;5035925;28;20200;-86
2022/07/20 11:15:57;;;;;;;14.18;4.15;;;36.00;34.40;;;;;;5035814;28;20268;-86
2022/07/20 11:18:25;;;;;;;6.63;3.33;;;36.40;31.90;;;;;;5036032;28;20160;-86
2022/07/20 11:20:56;;;;;;;11.35;3.70;;;36.50;33.00;;;;;;5036343;28;20173;-86
2022/07/20 11:23:25;;;;;;;9.82;3.72;;;36.30;30.10;;;;;;5037367;28;20676;-86
2022/07/20 11:25:56;;;;;;;5.40;3.13;;;36.30;32.30;;;;;;5036103;28;20182;-86
2022/07/20 11:28:25;;;;;;;15.20;3.67;;;36.40;32.40;;;;;;5037138;28;20176;-86
2022/07/20 11:30:52;;;;;;;10.50;3.47;;;36.20;31.70;;;;;;5038110;28;20230;-86
2022/07/20 11:33:31;;;;;;;5.75;3.13;;;36.40;32.20;;;;;;5040636;28;20204;-86
2022/07/20 11:36:06;;;;;;;7.47;3.53;;;36.70;31.40;;;;;;5039098;28;20172;-86
2022/07/20 11:38:37;;;;;;;7.82;4.32;;;36.80;28.90;;;;;;5041965;28;20156;-87
2022/07/20 11:41:05;;;;;;;8.43;3.72;;;36.70;30.60;;;;;;5040822;28;20172;-85
2022/07/20 11:43:31;;;;;;;9.48;4.47;;;36.80;30.00;;;;;;5041870;28;20184;-85
2022/07/20 11:46:17;;;;;;;8.15;4.00;;;36.70;30.00;;;;;;5039482;28;20172;-86
2022/07/20 11:48:44;;;;;;;7.28;3.72;;;36.40;30.00;;;;;;5037169;28;20725;-85
2022/07/20 11:51:11;;;;;;;7.00;4.05;;;36.60;30.60;;;;;;5036924;28;20180;-85
2022/07/20 11:53:40;;;;;;;15.02;6.70;;;36.70;30.20;;;;;;5037591;28;20203;-85
2022/07/20 11:56:18;;;;;;;8.70;4.53;;;36.80;30.30;;;;;;5040285;28;20161;-86
2022/07/20 11:58:46;;;;;;;11.20;3.38;;;37.00;30.00;;;;;;5038822;28;20665;-85
2022/07/20 12:01:18;;;;;;;11.43;3.47;;;36.70;28.80;;;;;;5038942;28;20223;-85
2022/07/20 12:03:50;;;;;;;10.18;4.03;;;36.60;28.30;;;;;;5036669;28;20181;-85
2022/07/20 12:06:16;;;;;;;14.98;3.95;;;36.90;29.30;;;;;;5036526;28;20222;-85
2022/07/20 12:08:42;;;;;;;10.15;3.63;;;36.70;29.90;;;;;;5037509;28;20608;-86
2022/07/20 12:11:09;;;;;;;6.28;3.38;;;37.00;28.80;;;;;;5036957;28;20176;-86
2022/07/20 12:13:49;;;;;;;8.07;3.88;;;37.10;30.20;;;;;;5036936;28;20257;-85
2022/07/20 12:16:17;;;;;;;10.80;3.30;;;37.50;29.70;;;;;;5035603;28;20175;-86
2022/07/20 12:18:51;;;;;;;6.05;3.20;;;37.80;27.40;;;;;;5036035;28;20263;-86
2022/07/20 12:21:24;;;;;;;10.65;3.85;;;37.60;29.30;;;;;;5036348;28;20162;-86
2022/07/20 12:23:51;;;;;;;12.95;3.72;;;37.50;29.30;;;;;;5035226;28;20173;-86
2022/07/20 12:26:28;;;;;;;15.23;3.50;;;37.60;29.80;;;;;;5035061;28;20176;-86
2022/07/20 12:28:56;;;;;;;12.00;3.35;;;37.70;28.20;;;;;;5035097;28;20234;-86
2022/07/20 12:31:24;;;;;;;6.78;3.40;;;37.60;29.20;;;;;;5036187;28;20168;-86
2022/07/20 12:34:11;;;;;;;11.65;3.25;;;37.60;28.90;;;;;;5035869;28;20192;-86
2022/07/20 12:36:36;;;;;;;8.93;3.55;;;37.90;28.30;;;;;;5036886;28;20153;-86
2022/07/20 12:39:04;;;;;;;6.53;3.28;;;37.80;27.30;;;;;;5037680;28;20299;-87
2022/07/20 12:41:30;;;;;;;8.95;3.17;;;37.90;29.00;;;;;;5037989;28;20267;-86
2022/07/20 12:43:55;;;;;;;8.40;3.33;;;38.10;27.40;;;;;;5034191;28;20276;-86
2022/07/20 12:46:21;;;;;;;6.18;2.80;;;38.30;25.80;;;;;;5035630;28;20263;-86
2022/07/20 12:48:50;;;;;;;4.80;2.97;;;38.20;26.60;;;;;;5036880;28;20192;-86